sensor_id;sensor_type;location;lat;lon;timestamp;P1;durP1;ratioP1;P2;durP2;ratioP2
68858;SDS011;55864;49.238;8.092;2022-12-29T00:00:52;5.60;;;1.90;;
68858;SDS011;55864;49.238;8.092;2022-12-29T00:02:52;6.60;;;1.70;;
68858;SDS011;55864;49.238;8.092;2022-12-29T00:04:53;5.60;;;1.70;;
68858;SDS011;55864;49.238;8.092;2022-12-29T00:06:54;5.27;;;1.73;;
68858;SDS011;55864;49.238;8.092;2022-12-29T00:08:55;6.53;;;2.03;;
68858;SDS011;55864;49.238;8.092;2022-12-29T00:10:55;7.30;;;2.00;;
68858;SDS011;55864;49.238;8.092;2022-12-29T00:12:56;4.77;;;1.30;;
68858;SDS011;55864;49.238;8.092;2022-12-29T00:14:56;6.07;;;1.93;;
68858;SDS011;55864;49.238;8.092;2022-12-29T00:16:58;5.30;;;1.83;;
68858;SDS011;55864;49.238;8.092;2022-12-29T00:18:59;6.87;;;1.90;;
68858;SDS011;55864;49.238;8.092;2022-12-29T00:21:00;6.33;;;1.87;;
68858;SDS011;55864;49.238;8.092;2022-12-29T00:23:00;5.03;;;1.70;;
68858;SDS011;55864;49.238;8.092;2022-12-29T00:25:01;4.50;;;1.73;;
68858;SDS011;55864;49.238;8.092;2022-12-29T00:27:09;4.97;;;1.47;;
68858;SDS011;55864;49.238;8.092;2022-12-29T00:29:12;4.17;;;1.50;;
68858;SDS011;55864;49.238;8.092;2022-12-29T00:31:12;6.30;;;1.70;;
68858;SDS011;55864;49.238;8.092;2022-12-29T00:33:15;5.73;;;1.40;;
68858;SDS011;55864;49.238;8.092;2022-12-29T00:35:19;4.83;;;1.50;;
68858;SDS011;55864;49.238;8.092;2022-12-29T00:37:25;4.50;;;1.77;;
68858;SDS011;55864;49.238;8.092;2022-12-29T00:39:25;4.40;;;1.50;;
68858;SDS011;55864;49.238;8.092;2022-12-29T00:41:26;5.20;;;1.40;;
68858;SDS011;55864;49.238;8.092;2022-12-29T00:43:27;4.67;;;1.40;;
68858;SDS011;55864;49.238;8.092;2022-12-29T00:45:27;2.90;;;1.30;;
68858;SDS011;55864;49.238;8.092;2022-12-29T00:47:28;4.80;;;1.40;;
68858;SDS011;55864;49.238;8.092;2022-12-29T00:49:30;3.87;;;1.30;;
68858;SDS011;55864;49.238;8.092;2022-12-29T00:51:31;5.13;;;1.42;;
68858;SDS011;55864;49.238;8.092;2022-12-29T00:53:31;4.57;;;1.50;;
68858;SDS011;55864;49.238;8.092;2022-12-29T00:55:35;4.83;;;1.40;;
68858;SDS011;55864;49.238;8.092;2022-12-29T00:57:36;3.27;;;1.30;;
68858;SDS011;55864;49.238;8.092;2022-12-29T00:59:37;4.00;;;1.37;;
68858;SDS011;55864;49.238;8.092;2022-12-29T01:01:39;4.53;;;1.30;;
68858;SDS011;55864;49.238;8.092;2022-12-29T01:03:40;4.60;;;1.80;;
68858;SDS011;55864;49.238;8.092;2022-12-29T01:05:44;3.70;;;1.57;;
68858;SDS011;55864;49.238;8.092;2022-12-29T01:07:46;3.20;;;1.20;;
68858;SDS011;55864;49.238;8.092;2022-12-29T01:09:47;4.93;;;1.47;;
68858;SDS011;55864;49.238;8.092;2022-12-29T01:11:48;3.73;;;1.30;;
68858;SDS011;55864;49.238;8.092;2022-12-29T01:13:49;4.40;;;1.30;;
68858;SDS011;55864;49.238;8.092;2022-12-29T01:15:50;5.47;;;1.33;;
68858;SDS011;55864;49.238;8.092;2022-12-29T01:17:51;4.87;;;1.70;;
68858;SDS011;55864;49.238;8.092;2022-12-29T01:19:51;5.53;;;1.90;;
68858;SDS011;55864;49.238;8.092;2022-12-29T01:21:53;4.23;;;1.27;;
68858;SDS011;55864;49.238;8.092;2022-12-29T01:23:54;4.60;;;1.40;;
68858;SDS011;55864;49.238;8.092;2022-12-29T01:25:54;4.33;;;1.30;;
68858;SDS011;55864;49.238;8.092;2022-12-29T01:27:55;4.17;;;1.37;;
68858;SDS011;55864;49.238;8.092;2022-12-29T01:29:56;4.03;;;1.33;;
68858;SDS011;55864;49.238;8.092;2022-12-29T01:31:56;5.90;;;1.77;;
68858;SDS011;55864;49.238;8.092;2022-12-29T01:33:57;4.83;;;1.40;;
68858;SDS011;55864;49.238;8.092;2022-12-29T01:35:59;4.60;;;1.37;;
68858;SDS011;55864;49.238;8.092;2022-12-29T01:38:01;3.47;;;1.30;;
68858;SDS011;55864;49.238;8.092;2022-12-29T01:40:02;3.20;;;1.17;;
68858;SDS011;55864;49.238;8.092;2022-12-29T01:42:03;5.00;;;1.30;;
68858;SDS011;55864;49.238;8.092;2022-12-29T01:46:38;4.57;;;1.52;;
68858;SDS011;55864;49.238;8.092;2022-12-29T01:48:41;4.43;;;1.20;;
68858;SDS011;55864;49.238;8.092;2022-12-29T01:50:43;5.43;;;1.40;;
68858;SDS011;55864;49.238;8.092;2022-12-29T01:52:50;4.10;;;1.30;;
68858;SDS011;55864;49.238;8.092;2022-12-29T01:54:56;5.23;;;1.40;;
68858;SDS011;55864;49.238;8.092;2022-12-29T01:56:58;5.35;;;1.40;;
68858;SDS011;55864;49.238;8.092;2022-12-29T01:59:04;5.57;;;1.47;;
68858;SDS011;55864;49.238;8.092;2022-12-29T02:01:08;4.97;;;1.40;;
68858;SDS011;55864;49.238;8.092;2022-12-29T02:03:09;3.63;;;1.20;;
68858;SDS011;55864;49.238;8.092;2022-12-29T02:05:11;4.13;;;1.40;;
68858;SDS011;55864;49.238;8.092;2022-12-29T02:07:19;4.53;;;1.20;;
68858;SDS011;55864;49.238;8.092;2022-12-29T02:09:23;5.97;;;1.67;;
68858;SDS011;55864;49.238;8.092;2022-12-29T02:11:26;3.77;;;1.40;;
68858;SDS011;55864;49.238;8.092;2022-12-29T02:13:29;5.83;;;1.60;;
68858;SDS011;55864;49.238;8.092;2022-12-29T02:15:34;4.43;;;1.57;;
68858;SDS011;55864;49.238;8.092;2022-12-29T02:17:44;3.57;;;1.20;;
68858;SDS011;55864;49.238;8.092;2022-12-29T02:22:34;2.63;;;1.10;;
68858;SDS011;55864;49.238;8.092;2022-12-29T02:24:52;5.07;;;1.40;;
68858;SDS011;55864;49.238;8.092;2022-12-29T02:29:58;5.30;;;2.13;;
68858;SDS011;55864;49.238;8.092;2022-12-29T02:34:15;4.30;;;1.23;;
68858;SDS011;55864;49.238;8.092;2022-12-29T02:36:24;4.37;;;1.43;;
68858;SDS011;55864;49.238;8.092;2022-12-29T02:38:36;4.43;;;1.40;;
68858;SDS011;55864;49.238;8.092;2022-12-29T02:40:48;4.47;;;1.30;;
68858;SDS011;55864;49.238;8.092;2022-12-29T02:42:55;4.33;;;1.43;;
68858;SDS011;55864;49.238;8.092;2022-12-29T02:45:04;5.53;;;1.70;;
68858;SDS011;55864;49.238;8.092;2022-12-29T02:47:11;7.37;;;1.90;;
68858;SDS011;55864;49.238;8.092;2022-12-29T02:49:18;4.77;;;1.50;;
68858;SDS011;55864;49.238;8.092;2022-12-29T02:51:23;4.83;;;1.33;;
68858;SDS011;55864;49.238;8.092;2022-12-29T02:53:27;4.60;;;1.30;;
68858;SDS011;55864;49.238;8.092;2022-12-29T02:55:31;4.50;;;1.50;;
68858;SDS011;55864;49.238;8.092;2022-12-29T02:57:32;5.90;;;1.60;;
68858;SDS011;55864;49.238;8.092;2022-12-29T02:59:35;4.55;;;1.50;;
68858;SDS011;55864;49.238;8.092;2022-12-29T03:01:39;6.03;;;1.63;;
68858;SDS011;55864;49.238;8.092;2022-12-29T03:03:59;3.40;;;1.30;;
68858;SDS011;55864;49.238;8.092;2022-12-29T03:06:15;3.17;;;1.23;;
68858;SDS011;55864;49.238;8.092;2022-12-29T03:08:32;4.20;;;1.20;;
68858;SDS011;55864;49.238;8.092;2022-12-29T03:10:41;5.03;;;1.60;;
68858;SDS011;55864;49.238;8.092;2022-12-29T03:12:48;5.87;;;1.50;;
68858;SDS011;55864;49.238;8.092;2022-12-29T03:14:56;3.80;;;1.20;;
68858;SDS011;55864;49.238;8.092;2022-12-29T03:17:01;4.57;;;1.30;;
68858;SDS011;55864;49.238;8.092;2022-12-29T03:19:09;4.20;;;1.30;;
68858;SDS011;55864;49.238;8.092;2022-12-29T03:21:17;4.90;;;1.20;;
68858;SDS011;55864;49.238;8.092;2022-12-29T03:23:25;3.93;;;1.50;;
68858;SDS011;55864;49.238;8.092;2022-12-29T03:25:28;6.25;;;1.50;;
68858;SDS011;55864;49.238;8.092;2022-12-29T03:27:33;3.73;;;1.30;;
68858;SDS011;55864;49.238;8.092;2022-12-29T03:29:39;3.20;;;1.20;;
68858;SDS011;55864;49.238;8.092;2022-12-29T03:31:44;4.63;;;1.30;;
68858;SDS011;55864;49.238;8.092;2022-12-29T03:33:47;4.47;;;1.30;;
68858;SDS011;55864;49.238;8.092;2022-12-29T03:35:52;4.07;;;1.38;;
68858;SDS011;55864;49.238;8.092;2022-12-29T03:37:58;3.20;;;1.10;;
68858;SDS011;55864;49.238;8.092;2022-12-29T03:40:03;3.70;;;1.30;;
68858;SDS011;55864;49.238;8.092;2022-12-29T03:42:05;4.43;;;1.30;;
68858;SDS011;55864;49.238;8.092;2022-12-29T03:44:10;4.30;;;1.30;;
68858;SDS011;55864;49.238;8.092;2022-12-29T03:46:13;6.03;;;1.23;;
68858;SDS011;55864;49.238;8.092;2022-12-29T03:48:15;3.33;;;1.30;;
68858;SDS011;55864;49.238;8.092;2022-12-29T03:50:17;3.87;;;1.30;;
68858;SDS011;55864;49.238;8.092;2022-12-29T03:52:19;6.40;;;1.50;;
68858;SDS011;55864;49.238;8.092;2022-12-29T03:54:21;4.18;;;1.30;;
68858;SDS011;55864;49.238;8.092;2022-12-29T03:56:21;3.63;;;1.20;;
68858;SDS011;55864;49.238;8.092;2022-12-29T03:58:23;4.60;;;1.50;;
68858;SDS011;55864;49.238;8.092;2022-12-29T04:00:32;4.00;;;1.30;;
68858;SDS011;55864;49.238;8.092;2022-12-29T04:02:32;4.37;;;1.30;;
68858;SDS011;55864;49.238;8.092;2022-12-29T04:04:33;3.27;;;1.30;;
68858;SDS011;55864;49.238;8.092;2022-12-29T04:06:34;6.50;;;1.40;;
68858;SDS011;55864;49.238;8.092;2022-12-29T04:08:41;4.13;;;1.20;;
68858;SDS011;55864;49.238;8.092;2022-12-29T04:10:42;6.40;;;1.30;;
68858;SDS011;55864;49.238;8.092;2022-12-29T04:12:42;5.77;;;1.30;;
68858;SDS011;55864;49.238;8.092;2022-12-29T04:14:43;4.07;;;1.40;;
68858;SDS011;55864;49.238;8.092;2022-12-29T04:16:44;4.27;;;1.20;;
68858;SDS011;55864;49.238;8.092;2022-12-29T04:18:45;3.73;;;1.30;;
68858;SDS011;55864;49.238;8.092;2022-12-29T04:20:46;5.80;;;1.40;;
68858;SDS011;55864;49.238;8.092;2022-12-29T04:22:47;3.73;;;1.23;;
68858;SDS011;55864;49.238;8.092;2022-12-29T04:24:50;5.05;;;1.55;;
68858;SDS011;55864;49.238;8.092;2022-12-29T04:26:51;3.33;;;1.25;;
68858;SDS011;55864;49.238;8.092;2022-12-29T04:29:14;4.47;;;1.40;;
68858;SDS011;55864;49.238;8.092;2022-12-29T04:31:47;3.80;;;1.40;;
68858;SDS011;55864;49.238;8.092;2022-12-29T04:33:48;5.70;;;1.20;;
68858;SDS011;55864;49.238;8.092;2022-12-29T04:35:49;4.50;;;1.20;;
68858;SDS011;55864;49.238;8.092;2022-12-29T04:37:50;4.10;;;1.10;;
68858;SDS011;55864;49.238;8.092;2022-12-29T04:39:53;4.30;;;1.30;;
68858;SDS011;55864;49.238;8.092;2022-12-29T04:41:53;4.80;;;1.27;;
68858;SDS011;55864;49.238;8.092;2022-12-29T04:43:55;3.87;;;1.20;;
68858;SDS011;55864;49.238;8.092;2022-12-29T04:46:18;3.27;;;1.30;;
68858;SDS011;55864;49.238;8.092;2022-12-29T04:48:24;5.80;;;1.30;;
68858;SDS011;55864;49.238;8.092;2022-12-29T04:50:54;3.60;;;1.30;;
68858;SDS011;55864;49.238;8.092;2022-12-29T04:52:58;4.53;;;1.30;;
68858;SDS011;55864;49.238;8.092;2022-12-29T04:55:01;4.17;;;1.30;;
68858;SDS011;55864;49.238;8.092;2022-12-29T04:57:02;6.03;;;1.30;;
68858;SDS011;55864;49.238;8.092;2022-12-29T04:59:03;3.97;;;1.40;;
68858;SDS011;55864;49.238;8.092;2022-12-29T05:01:04;6.00;;;1.60;;
68858;SDS011;55864;49.238;8.092;2022-12-29T05:03:04;4.97;;;1.20;;
68858;SDS011;55864;49.238;8.092;2022-12-29T05:05:05;4.30;;;1.40;;
68858;SDS011;55864;49.238;8.092;2022-12-29T05:07:09;4.23;;;1.50;;
68858;SDS011;55864;49.238;8.092;2022-12-29T05:09:11;3.83;;;1.30;;
68858;SDS011;55864;49.238;8.092;2022-12-29T05:11:13;4.33;;;1.30;;
68858;SDS011;55864;49.238;8.092;2022-12-29T05:13:14;3.73;;;1.43;;
68858;SDS011;55864;49.238;8.092;2022-12-29T05:15:15;2.80;;;1.10;;
68858;SDS011;55864;49.238;8.092;2022-12-29T05:17:17;4.50;;;1.70;;
68858;SDS011;55864;49.238;8.092;2022-12-29T05:19:17;9.50;;;4.47;;
68858;SDS011;55864;49.238;8.092;2022-12-29T05:21:18;8.57;;;3.07;;
68858;SDS011;55864;49.238;8.092;2022-12-29T05:23:19;8.40;;;3.73;;
68858;SDS011;55864;49.238;8.092;2022-12-29T05:25:24;7.27;;;2.67;;
68858;SDS011;55864;49.238;8.092;2022-12-29T05:27:39;6.13;;;1.90;;
68858;SDS011;55864;49.238;8.092;2022-12-29T05:29:50;4.93;;;1.63;;
68858;SDS011;55864;49.238;8.092;2022-12-29T05:31:51;7.17;;;3.20;;
68858;SDS011;55864;49.238;8.092;2022-12-29T05:33:51;4.83;;;1.67;;
68858;SDS011;55864;49.238;8.092;2022-12-29T05:35:53;6.70;;;2.53;;
68858;SDS011;55864;49.238;8.092;2022-12-29T05:37:54;5.67;;;1.83;;
68858;SDS011;55864;49.238;8.092;2022-12-29T05:39:55;4.97;;;1.50;;
68858;SDS011;55864;49.238;8.092;2022-12-29T05:41:56;8.27;;;1.77;;
68858;SDS011;55864;49.238;8.092;2022-12-29T05:44:34;3.97;;;1.43;;
68858;SDS011;55864;49.238;8.092;2022-12-29T05:46:57;5.05;;;1.55;;
68858;SDS011;55864;49.238;8.092;2022-12-29T05:49:16;5.67;;;1.70;;
68858;SDS011;55864;49.238;8.092;2022-12-29T05:51:29;5.88;;;1.63;;
68858;SDS011;55864;49.238;8.092;2022-12-29T05:53:31;5.20;;;1.63;;
68858;SDS011;55864;49.238;8.092;2022-12-29T05:55:32;6.20;;;1.80;;
68858;SDS011;55864;49.238;8.092;2022-12-29T05:57:33;5.20;;;1.97;;
68858;SDS011;55864;49.238;8.092;2022-12-29T05:59:45;5.93;;;1.60;;
68858;SDS011;55864;49.238;8.092;2022-12-29T06:01:46;8.23;;;1.70;;
68858;SDS011;55864;49.238;8.092;2022-12-29T06:03:47;4.10;;;1.30;;
68858;SDS011;55864;49.238;8.092;2022-12-29T06:05:47;5.57;;;1.48;;
68858;SDS011;55864;49.238;8.092;2022-12-29T06:07:50;4.72;;;1.40;;
68858;SDS011;55864;49.238;8.092;2022-12-29T06:09:51;4.68;;;1.67;;
68858;SDS011;55864;49.238;8.092;2022-12-29T06:11:52;4.40;;;1.50;;
68858;SDS011;55864;49.238;8.092;2022-12-29T06:13:53;7.30;;;1.70;;
68858;SDS011;55864;49.238;8.092;2022-12-29T06:15:55;5.22;;;1.58;;
68858;SDS011;55864;49.238;8.092;2022-12-29T06:17:59;3.88;;;1.55;;
68858;SDS011;55864;49.238;8.092;2022-12-29T06:20:00;5.90;;;1.80;;
68858;SDS011;55864;49.238;8.092;2022-12-29T06:22:00;5.57;;;1.50;;
68858;SDS011;55864;49.238;8.092;2022-12-29T06:24:02;5.67;;;1.60;;
68858;SDS011;55864;49.238;8.092;2022-12-29T06:26:03;4.20;;;1.48;;
68858;SDS011;55864;49.238;8.092;2022-12-29T06:28:04;4.33;;;1.47;;
68858;SDS011;55864;49.238;8.092;2022-12-29T06:30:05;4.87;;;1.60;;
68858;SDS011;55864;49.238;8.092;2022-12-29T06:32:08;3.87;;;1.47;;
68858;SDS011;55864;49.238;8.092;2022-12-29T06:34:10;3.97;;;1.30;;
68858;SDS011;55864;49.238;8.092;2022-12-29T06:36:10;8.02;;;1.70;;
68858;SDS011;55864;49.238;8.092;2022-12-29T06:38:11;6.10;;;1.60;;
68858;SDS011;55864;49.238;8.092;2022-12-29T06:40:12;4.53;;;1.60;;
68858;SDS011;55864;49.238;8.092;2022-12-29T06:42:31;6.18;;;1.70;;
68858;SDS011;55864;49.238;8.092;2022-12-29T06:45:00;5.38;;;1.67;;
68858;SDS011;55864;49.238;8.092;2022-12-29T06:47:00;4.83;;;1.50;;
68858;SDS011;55864;49.238;8.092;2022-12-29T06:49:02;4.13;;;1.60;;
68858;SDS011;55864;49.238;8.092;2022-12-29T06:51:03;4.03;;;1.50;;
68858;SDS011;55864;49.238;8.092;2022-12-29T06:53:03;4.63;;;1.50;;
68858;SDS011;55864;49.238;8.092;2022-12-29T06:55:04;5.13;;;1.60;;
68858;SDS011;55864;49.238;8.092;2022-12-29T06:57:05;5.30;;;1.88;;
68858;SDS011;55864;49.238;8.092;2022-12-29T06:59:06;4.83;;;1.37;;
68858;SDS011;55864;49.238;8.092;2022-12-29T07:01:06;5.03;;;1.58;;
68858;SDS011;55864;49.238;8.092;2022-12-29T07:03:07;5.80;;;1.80;;
68858;SDS011;55864;49.238;8.092;2022-12-29T07:05:09;6.57;;;1.70;;
68858;SDS011;55864;49.238;8.092;2022-12-29T07:07:10;5.70;;;1.57;;
68858;SDS011;55864;49.238;8.092;2022-12-29T07:09:10;5.63;;;1.60;;
68858;SDS011;55864;49.238;8.092;2022-12-29T07:11:11;6.38;;;1.80;;
68858;SDS011;55864;49.238;8.092;2022-12-29T07:13:12;5.63;;;1.70;;
68858;SDS011;55864;49.238;8.092;2022-12-29T07:15:12;5.70;;;1.60;;
68858;SDS011;55864;49.238;8.092;2022-12-29T07:17:13;4.45;;;1.52;;
68858;SDS011;55864;49.238;8.092;2022-12-29T07:19:13;8.00;;;1.60;;
68858;SDS011;55864;49.238;8.092;2022-12-29T07:23:31;6.88;;;1.80;;
68858;SDS011;55864;49.238;8.092;2022-12-29T07:25:31;5.38;;;1.83;;
68858;SDS011;55864;49.238;8.092;2022-12-29T07:27:32;5.30;;;1.70;;
68858;SDS011;55864;49.238;8.092;2022-12-29T07:29:32;5.40;;;1.75;;
68858;SDS011;55864;49.238;8.092;2022-12-29T07:31:33;4.20;;;1.60;;
68858;SDS011;55864;49.238;8.092;2022-12-29T07:33:34;7.57;;;2.00;;
68858;SDS011;55864;49.238;8.092;2022-12-29T07:35:34;4.47;;;1.70;;
68858;SDS011;55864;49.238;8.092;2022-12-29T08:18:11;5.70;;;2.00;;
68858;SDS011;55864;49.238;8.092;2022-12-29T08:20:12;5.30;;;1.80;;
68858;SDS011;55864;49.238;8.092;2022-12-29T08:22:13;7.35;;;2.00;;
68858;SDS011;55864;49.238;8.092;2022-12-29T08:24:14;5.07;;;2.00;;
68858;SDS011;55864;49.238;8.092;2022-12-29T08:26:14;5.90;;;2.65;;
68858;SDS011;55864;49.238;8.092;2022-12-29T08:28:15;6.55;;;2.08;;
68858;SDS011;55864;49.238;8.092;2022-12-29T08:30:15;7.90;;;2.20;;
68858;SDS011;55864;49.238;8.092;2022-12-29T08:32:16;8.13;;;2.40;;
68858;SDS011;55864;49.238;8.092;2022-12-29T08:34:19;4.93;;;1.98;;
68858;SDS011;55864;49.238;8.092;2022-12-29T08:36:20;5.75;;;2.00;;
68858;SDS011;55864;49.238;8.092;2022-12-29T08:38:20;6.80;;;1.90;;
68858;SDS011;55864;49.238;8.092;2022-12-29T08:40:21;5.32;;;1.73;;
68858;SDS011;55864;49.238;8.092;2022-12-29T08:42:21;8.18;;;2.35;;
68858;SDS011;55864;49.238;8.092;2022-12-29T08:44:22;10.98;;;1.90;;
68858;SDS011;55864;49.238;8.092;2022-12-29T08:46:23;6.40;;;1.98;;
68858;SDS011;55864;49.238;8.092;2022-12-29T08:48:23;5.63;;;1.95;;
68858;SDS011;55864;49.238;8.092;2022-12-29T08:50:25;6.43;;;2.30;;
68858;SDS011;55864;49.238;8.092;2022-12-29T08:52:26;8.77;;;2.30;;
68858;SDS011;55864;49.238;8.092;2022-12-29T08:54:26;5.85;;;1.90;;
68858;SDS011;55864;49.238;8.092;2022-12-29T08:56:27;5.90;;;2.40;;
68858;SDS011;55864;49.238;8.092;2022-12-29T08:58:30;5.43;;;2.30;;
68858;SDS011;55864;49.238;8.092;2022-12-29T09:00:31;8.27;;;2.78;;
68858;SDS011;55864;49.238;8.092;2022-12-29T09:02:31;6.80;;;2.50;;
68858;SDS011;55864;49.238;8.092;2022-12-29T09:04:32;6.73;;;2.50;;
68858;SDS011;55864;49.238;8.092;2022-12-29T09:06:34;5.53;;;2.10;;
68858;SDS011;55864;49.238;8.092;2022-12-29T09:08:36;8.07;;;2.22;;
68858;SDS011;55864;49.238;8.092;2022-12-29T09:10:36;7.38;;;2.63;;
68858;SDS011;55864;49.238;8.092;2022-12-29T09:12:37;5.82;;;1.98;;
68858;SDS011;55864;49.238;8.092;2022-12-29T09:14:37;6.47;;;2.50;;
68858;SDS011;55864;49.238;8.092;2022-12-29T09:18:54;5.40;;;2.30;;
68858;SDS011;55864;49.238;8.092;2022-12-29T09:20:55;7.70;;;3.03;;
68858;SDS011;55864;49.238;8.092;2022-12-29T09:22:58;6.57;;;2.63;;
68858;SDS011;55864;49.238;8.092;2022-12-29T09:24:59;7.13;;;2.67;;
68858;SDS011;55864;49.238;8.092;2022-12-29T09:26:59;6.40;;;2.28;;
68858;SDS011;55864;49.238;8.092;2022-12-29T09:29:00;7.53;;;3.03;;
68858;SDS011;55864;49.238;8.092;2022-12-29T09:31:00;8.33;;;2.43;;
68858;SDS011;55864;49.238;8.092;2022-12-29T09:33:01;7.20;;;2.47;;
68858;SDS011;55864;49.238;8.092;2022-12-29T09:35:02;6.40;;;2.20;;
68858;SDS011;55864;49.238;8.092;2022-12-29T09:37:03;7.80;;;2.42;;
68858;SDS011;55864;49.238;8.092;2022-12-29T09:39:05;5.30;;;2.13;;
68858;SDS011;55864;49.238;8.092;2022-12-29T09:41:06;6.82;;;2.58;;
68858;SDS011;55864;49.238;8.092;2022-12-29T09:43:21;6.57;;;2.47;;
68858;SDS011;55864;49.238;8.092;2022-12-29T09:45:33;6.17;;;2.23;;
68858;SDS011;55864;49.238;8.092;2022-12-29T09:47:40;5.90;;;2.20;;
68858;SDS011;55864;49.238;8.092;2022-12-29T09:49:43;8.90;;;2.60;;
68858;SDS011;55864;49.238;8.092;2022-12-29T09:51:48;8.23;;;2.60;;
68858;SDS011;55864;49.238;8.092;2022-12-29T09:53:53;5.47;;;2.00;;
68858;SDS011;55864;49.238;8.092;2022-12-29T09:55:59;7.33;;;2.37;;
68858;SDS011;55864;49.238;8.092;2022-12-29T09:58:02;5.37;;;2.13;;
68858;SDS011;55864;49.238;8.092;2022-12-29T10:00:09;5.93;;;2.22;;
68858;SDS011;55864;49.238;8.092;2022-12-29T10:02:16;7.33;;;2.33;;
68858;SDS011;55864;49.238;8.092;2022-12-29T10:04:29;6.20;;;2.30;;
68858;SDS011;55864;49.238;8.092;2022-12-29T10:06:31;7.00;;;2.50;;
68858;SDS011;55864;49.238;8.092;2022-12-29T10:08:37;7.80;;;2.60;;
68858;SDS011;55864;49.238;8.092;2022-12-29T10:10:43;7.63;;;2.50;;
68858;SDS011;55864;49.238;8.092;2022-12-29T10:12:58;6.40;;;2.03;;
68858;SDS011;55864;49.238;8.092;2022-12-29T10:15:09;7.03;;;2.30;;
68858;SDS011;55864;49.238;8.092;2022-12-29T10:17:21;5.28;;;2.00;;
68858;SDS011;55864;49.238;8.092;2022-12-29T10:19:37;6.20;;;2.30;;
68858;SDS011;55864;49.238;8.092;2022-12-29T10:21:52;5.82;;;2.40;;
68858;SDS011;55864;49.238;8.092;2022-12-29T10:26:04;5.72;;;2.13;;
68858;SDS011;55864;49.238;8.092;2022-12-29T10:28:17;5.63;;;2.27;;
68858;SDS011;55864;49.238;8.092;2022-12-29T10:30:20;5.17;;;2.03;;
68858;SDS011;55864;49.238;8.092;2022-12-29T10:32:25;6.37;;;2.27;;
68858;SDS011;55864;49.238;8.092;2022-12-29T10:34:34;4.40;;;1.73;;
68858;SDS011;55864;49.238;8.092;2022-12-29T10:36:38;5.03;;;1.97;;
68858;SDS011;55864;49.238;8.092;2022-12-29T10:38:43;5.03;;;1.80;;
68858;SDS011;55864;49.238;8.092;2022-12-29T10:40:49;5.43;;;1.88;;
68858;SDS011;55864;49.238;8.092;2022-12-29T10:42:54;5.53;;;2.03;;
68858;SDS011;55864;49.238;8.092;2022-12-29T10:44:58;5.20;;;1.90;;
68858;SDS011;55864;49.238;8.092;2022-12-29T10:46:59;8.82;;;2.30;;
68858;SDS011;55864;49.238;8.092;2022-12-29T10:49:04;6.32;;;2.10;;
68858;SDS011;55864;49.238;8.092;2022-12-29T10:51:06;5.95;;;1.98;;
68858;SDS011;55864;49.238;8.092;2022-12-29T10:53:08;5.45;;;1.90;;
68858;SDS011;55864;49.238;8.092;2022-12-29T10:55:21;5.82;;;2.00;;
68858;SDS011;55864;49.238;8.092;2022-12-29T10:57:26;5.65;;;1.95;;
68858;SDS011;55864;49.238;8.092;2022-12-29T10:59:30;5.97;;;2.40;;
68858;SDS011;55864;49.238;8.092;2022-12-29T11:01:34;11.38;;;3.83;;
68858;SDS011;55864;49.238;8.092;2022-12-29T11:06:18;8.27;;;2.87;;
68858;SDS011;55864;49.238;8.092;2022-12-29T11:08:25;6.90;;;2.67;;
68858;SDS011;55864;49.238;8.092;2022-12-29T11:10:29;6.05;;;2.22;;
68858;SDS011;55864;49.238;8.092;2022-12-29T11:12:35;6.35;;;1.60;;
68858;SDS011;55864;49.238;8.092;2022-12-29T11:14:35;6.00;;;1.77;;
68858;SDS011;55864;49.238;8.092;2022-12-29T11:16:37;6.05;;;1.85;;
68858;SDS011;55864;49.238;8.092;2022-12-29T11:18:39;5.60;;;1.93;;
68858;SDS011;55864;49.238;8.092;2022-12-29T11:20:40;4.70;;;1.80;;
68858;SDS011;55864;49.238;8.092;2022-12-29T11:22:42;6.30;;;1.70;;
68858;SDS011;55864;49.238;8.092;2022-12-29T11:24:44;5.72;;;1.85;;
68858;SDS011;55864;49.238;8.092;2022-12-29T11:26:46;8.73;;;4.17;;
68858;SDS011;55864;49.238;8.092;2022-12-29T11:29:03;10.02;;;1.75;;
68858;SDS011;55864;49.238;8.092;2022-12-29T11:31:20;6.57;;;2.60;;
68858;SDS011;55864;49.238;8.092;2022-12-29T11:33:23;5.87;;;2.70;;
68858;SDS011;55864;49.238;8.092;2022-12-29T11:35:30;6.47;;;2.03;;
68858;SDS011;55864;49.238;8.092;2022-12-29T11:37:37;5.27;;;1.50;;
68858;SDS011;55864;49.238;8.092;2022-12-29T11:39:40;4.63;;;1.30;;
68858;SDS011;55864;49.238;8.092;2022-12-29T11:41:46;4.67;;;1.70;;
68858;SDS011;55864;49.238;8.092;2022-12-29T11:43:52;5.90;;;1.95;;
68858;SDS011;55864;49.238;8.092;2022-12-29T11:45:55;9.82;;;2.00;;
68858;SDS011;55864;49.238;8.092;2022-12-29T11:47:56;6.03;;;2.10;;
68858;SDS011;55864;49.238;8.092;2022-12-29T11:50:03;13.98;;;6.55;;
68858;SDS011;55864;49.238;8.092;2022-12-29T11:52:06;9.63;;;4.93;;
68858;SDS011;55864;49.238;8.092;2022-12-29T11:54:10;9.27;;;3.63;;
68858;SDS011;55864;49.238;8.092;2022-12-29T11:56:14;12.57;;;7.68;;
68858;SDS011;55864;49.238;8.092;2022-12-29T11:58:16;9.00;;;5.20;;
68858;SDS011;55864;49.238;8.092;2022-12-29T12:00:17;8.98;;;4.63;;
68858;SDS011;55864;49.238;8.092;2022-12-29T12:04:39;22.77;;;11.00;;
68858;SDS011;55864;49.238;8.092;2022-12-29T12:06:43;28.15;;;12.40;;
68858;SDS011;55864;49.238;8.092;2022-12-29T12:08:47;17.08;;;8.57;;
68858;SDS011;55864;49.238;8.092;2022-12-29T12:10:55;13.05;;;5.80;;
68858;SDS011;55864;49.238;8.092;2022-12-29T12:13:03;13.70;;;6.90;;
68858;SDS011;55864;49.238;8.092;2022-12-29T12:15:13;13.00;;;5.37;;
68858;SDS011;55864;49.238;8.092;2022-12-29T12:17:29;10.70;;;3.90;;
68858;SDS011;55864;49.238;8.092;2022-12-29T12:19:33;8.55;;;3.22;;
68858;SDS011;55864;49.238;8.092;2022-12-29T12:21:43;13.32;;;5.90;;
68858;SDS011;55864;49.238;8.092;2022-12-29T12:23:59;11.07;;;3.92;;
68858;SDS011;55864;49.238;8.092;2022-12-29T12:26:09;24.80;;;8.82;;
68858;SDS011;55864;49.238;8.092;2022-12-29T12:28:15;19.10;;;6.70;;
68858;SDS011;55864;49.238;8.092;2022-12-29T12:30:21;15.73;;;5.63;;
68858;SDS011;55864;49.238;8.092;2022-12-29T12:32:24;12.10;;;4.25;;
68858;SDS011;55864;49.238;8.092;2022-12-29T12:34:36;9.53;;;3.10;;
68858;SDS011;55864;49.238;8.092;2022-12-29T12:36:49;12.95;;;4.60;;
68858;SDS011;55864;49.238;8.092;2022-12-29T12:39:03;14.90;;;4.83;;
68858;SDS011;55864;49.238;8.092;2022-12-29T12:41:11;8.43;;;3.50;;
68858;SDS011;55864;49.238;8.092;2022-12-29T12:45:42;11.23;;;3.27;;
68858;SDS011;55864;49.238;8.092;2022-12-29T12:47:52;7.97;;;3.23;;
68858;SDS011;55864;49.238;8.092;2022-12-29T12:50:04;7.03;;;2.33;;
68858;SDS011;55864;49.238;8.092;2022-12-29T12:52:19;9.40;;;3.50;;
68858;SDS011;55864;49.238;8.092;2022-12-29T12:54:30;5.57;;;2.10;;
68858;SDS011;55864;49.238;8.092;2022-12-29T12:56:46;8.98;;;2.70;;
68858;SDS011;55864;49.238;8.092;2022-12-29T12:58:53;13.07;;;4.30;;
68858;SDS011;55864;49.238;8.092;2022-12-29T13:01:02;14.10;;;4.10;;
68858;SDS011;55864;49.238;8.092;2022-12-29T13:03:17;10.63;;;4.03;;
68858;SDS011;55864;49.238;8.092;2022-12-29T13:05:30;7.03;;;3.30;;
68858;SDS011;55864;49.238;8.092;2022-12-29T13:07:44;11.85;;;3.97;;
68858;SDS011;55864;49.238;8.092;2022-12-29T13:12:21;6.50;;;3.00;;
68858;SDS011;55864;49.238;8.092;2022-12-29T13:14:33;6.78;;;2.60;;
68858;SDS011;55864;49.238;8.092;2022-12-29T13:16:41;6.77;;;2.17;;
68858;SDS011;55864;49.238;8.092;2022-12-29T13:18:52;5.80;;;2.00;;
68858;SDS011;55864;49.238;8.092;2022-12-29T13:20:59;5.00;;;1.73;;
68858;SDS011;55864;49.238;8.092;2022-12-29T13:23:06;6.53;;;2.00;;
68858;SDS011;55864;49.238;8.092;2022-12-29T13:25:21;5.63;;;2.40;;
68858;SDS011;55864;49.238;8.092;2022-12-29T13:27:31;5.63;;;2.65;;
68858;SDS011;55864;49.238;8.092;2022-12-29T13:29:38;5.07;;;2.60;;
68858;SDS011;55864;49.238;8.092;2022-12-29T13:31:49;5.78;;;1.98;;
68858;SDS011;55864;49.238;8.092;2022-12-29T13:34:00;4.93;;;1.55;;
68858;SDS011;55864;49.238;8.092;2022-12-29T13:36:07;6.17;;;1.90;;